Time;durP1;ratioP1;P1;durP2;ratioP2;P2;SDS_P1;SDS_P2;PMS_P1;PMS_P2;Temp;Humidity;BMP_temperature;BMP_pressure;BME280_temperature;BME280_humidity;BME280_pressure;Samples;Min_cycle;Max_cycle;Signal;HPM_P1;HPM_P2
2022/12/17 13:08:24;;;;;;;35.80;13.45;;;;;;;;;;5022825;28;20124;-82
2022/12/17 13:10:51;;;;;;;27.73;12.75;;;;;;;;;;5030171;28;20030;-78
2022/12/17 13:13:17;;;;;;;16.15;7.65;;;;;;;;;;5035605;28;20037;-82
2022/12/17 13:15:54;;;;;;;31.80;12.82;;;;;;;;;;5024618;28;20056;-81
2022/12/17 13:18:35;;;;;;;25.30;10.88;;;;;;;;;;5019618;28;20024;-82
2022/12/17 13:21:05;;;;;;;35.85;14.00;;;;;;;;;;5017895;28;20049;-78
2022/12/17 13:23:34;;;;;;;28.42;12.75;;;;;;;;;;5005940;28;20045;-78
2022/12/17 13:26:19;;;;;;;35.28;12.98;;;;;;;;;;5002369;28;20606;-82
2022/12/17 13:28:51;;;;;;;39.78;10.00;;;;;;;;;;5021819;28;20043;-82
2022/12/17 13:31:24;;;;;;;24.48;9.90;;;;;;;;;;5039709;28;20049;-78
2022/12/17 13:34:08;;;;;;;28.42;11.40;;;;;;;;;;4999256;28;20029;-83
2022/12/17 13:36:44;;;;;;;33.95;14.80;;;;;;;;;;5036463;28;20529;-82
2022/12/17 13:39:32;;;;;;;25.73;10.25;;;;;;;;;;5041007;28;20048;-81
2022/12/17 13:41:58;;;;;;;26.20;12.45;;;;;;;;;;5038868;28;20064;-82
2022/12/17 13:44:28;;;;;;;39.53;13.18;;;;;;;;;;5040073;28;20522;-81
2022/12/17 13:46:54;;;;;;;25.08;12.52;;;;;;;;;;5019940;28;20072;-81
2022/12/17 13:49:25;;;;;;;30.13;12.68;;;;;;;;;;5004111;28;20127;-82
2022/12/17 13:52:05;;;;;;;36.83;15.27;;;;;;;;;;5005034;28;20025;-79
2022/12/17 13:54:31;;;;;;;26.23;12.13;;;;;;;;;;4982605;28;20038;-82
2022/12/17 13:57:07;;;;;;;36.70;14.77;;;;;;;;;;5014758;28;20041;-82
2022/12/17 13:59:33;;;;;;;33.08;13.82;;;;;;;;;;5025036;28;20522;-82
2022/12/17 14:01:58;;;;;;;32.63;14.63;;;;;;;;;;5016248;28;20068;-82
2022/12/17 14:04:26;;;;;;;34.90;13.85;;;;;;;;;;5017870;28;20129;-83
2022/12/17 14:06:54;;;;;;;33.67;13.20;;;;;;;;;;5012140;28;20049;-83
2022/12/17 14:09:22;;;;;;;27.60;12.73;;;;;;;;;;5005675;28;20492;-83
2022/12/17 14:14:35;;;;;;;28.73;12.40;;;;;;;;;;5012809;28;20115;-83
2022/12/17 14:17:01;;;;;;;38.30;16.73;;;;;;;;;;5020739;28;20050;-82
2022/12/17 14:19:27;;;;;;;32.67;14.93;;;;;;;;;;4993094;28;20042;-79
2022/12/17 14:21:54;;;;;;;31.88;13.82;;;;;;;;;;4993462;28;20123;-85
2022/12/17 14:24:25;;;;;;;30.10;13.93;;;;;;;;;;5013065;28;20025;-80
2022/12/17 14:26:54;;;;;;;35.40;12.55;;;;;;;;;;5014139;28;20515;-81
2022/12/17 14:29:25;;;;;;;36.38;14.23;;;;;;;;;;5016089;28;20609;-81
2022/12/17 14:32:20;;;;;;;37.95;14.40;;;;;;;;;;5012009;28;20037;-81
2022/12/17 14:34:45;;;;;;;36.75;15.73;;;;;;;;;;5036012;28;20034;-84
2022/12/17 14:37:16;;;;;;;33.47;13.50;;;;;;;;;;5025745;28;20048;-83
2022/12/17 14:39:45;;;;;;;34.10;16.05;;;;;;;;;;5030560;28;20116;-84
2022/12/17 14:42:31;;;;;;;36.65;15.25;;;;;;;;;;5029412;28;20061;-82
2022/12/17 14:44:56;;;;;;;37.83;17.80;;;;;;;;;;5025003;28;20055;-86
2022/12/17 14:47:30;;;;;;;37.38;15.93;;;;;;;;;;5042668;28;20514;-79
2022/12/17 14:49:59;;;;;;;38.50;15.82;;;;;;;;;;5036306;28;20064;-82
2022/12/17 14:52:47;;;;;;;31.02;14.95;;;;;;;;;;5020424;28;20458;-82
2022/12/17 14:55:33;;;;;;;41.47;15.73;;;;;;;;;;5027339;28;20029;-82
2022/12/17 14:58:27;;;;;;;36.40;13.90;;;;;;;;;;5029341;28;20108;-83
2022/12/17 15:01:03;;;;;;;34.30;13.23;;;;;;;;;;5028855;28;20503;-81
2022/12/17 15:03:31;;;;;;;28.92;13.25;;;;;;;;;;5015534;28;20026;-84
2022/12/17 15:06:01;;;;;;;36.60;14.57;;;;;;;;;;5045606;28;20124;-83
2022/12/17 15:08:32;;;;;;;29.77;14.73;;;;;;;;;;5029584;28;20037;-83
2022/12/17 15:10:58;;;;;;;31.13;13.05;;;;;;;;;;5026796;28;20034;-82
2022/12/17 15:13:23;;;;;;;29.38;13.38;;;;;;;;;;5028552;28;20041;-84
2022/12/17 15:15:48;;;;;;;28.48;12.43;;;;;;;;;;5028907;28;20025;-80
2022/12/17 15:18:14;;;;;;;25.92;12.02;;;;;;;;;;5031599;28;20075;-81
2022/12/17 15:20:39;;;;;;;33.13;13.43;;;;;;;;;;5020729;28;20042;-81
2022/12/17 15:23:05;;;;;;;33.78;12.15;;;;;;;;;;5025611;28;20473;-80
2022/12/17 15:25:30;;;;;;;33.28;12.65;;;;;;;;;;5000975;28;20054;-82
2022/12/17 15:27:55;;;;;;;27.88;12.60;;;;;;;;;;5017037;28;20033;-81
2022/12/17 15:30:21;;;;;;;27.95;12.98;;;;;;;;;;5017124;28;20156;-81
2022/12/17 15:32:46;;;;;;;31.08;12.63;;;;;;;;;;5015956;28;20104;-81
2022/12/17 15:35:12;;;;;;;29.45;11.75;;;;;;;;;;5001380;28;20054;-79
2022/12/17 15:37:38;;;;;;;29.65;12.75;;;;;;;;;;5013108;28;20030;-82
2022/12/17 15:40:05;;;;;;;28.33;11.55;;;;;;;;;;5006861;28;20092;-81
2022/12/17 15:45:15;;;;;;;34.60;13.18;;;;;;;;;;5019117;28;20127;-81
2022/12/17 15:47:40;;;;;;;25.70;12.27;;;;;;;;;;5020306;28;20561;-78
2022/12/17 15:50:06;;;;;;;30.38;12.70;;;;;;;;;;5041335;28;20033;-80
2022/12/17 15:52:31;;;;;;;26.20;12.68;;;;;;;;;;5025964;28;20072;-80
2022/12/17 15:54:57;;;;;;;30.35;11.90;;;;;;;;;;5025873;28;20103;-80
2022/12/17 15:57:22;;;;;;;24.30;10.63;;;;;;;;;;5042048;28;20036;-81
2022/12/17 15:59:50;;;;;;;23.90;10.63;;;;;;;;;;5023644;28;20046;-81
2022/12/17 16:02:15;;;;;;;25.00;12.10;;;;;;;;;;5026655;28;20035;-81
2022/12/17 16:04:40;;;;;;;32.85;11.43;;;;;;;;;;5025700;28;20038;-80
2022/12/17 16:07:06;;;;;;;25.30;11.55;;;;;;;;;;5025515;28;20499;-81
2022/12/17 16:09:31;;;;;;;23.60;10.60;;;;;;;;;;5024050;28;20226;-85
2022/12/17 16:11:56;;;;;;;31.48;12.60;;;;;;;;;;5020906;28;20113;-81
2022/12/17 16:14:22;;;;;;;27.33;11.70;;;;;;;;;;5014424;28;20156;-79
2022/12/17 16:16:48;;;;;;;27.63;11.60;;;;;;;;;;5007172;28;20462;-81
2022/12/17 16:19:14;;;;;;;31.50;11.88;;;;;;;;;;5005052;28;20037;-80
2022/12/17 16:21:39;;;;;;;29.17;12.25;;;;;;;;;;5019038;28;20026;-79
2022/12/17 16:24:05;;;;;;;23.70;11.70;;;;;;;;;;5024851;28;20126;-80
2022/12/17 16:26:30;;;;;;;29.90;11.27;;;;;;;;;;5040727;28;20036;-80
2022/12/17 16:28:58;;;;;;;29.27;11.48;;;;;;;;;;5039256;28;20063;-82
2022/12/17 16:31:24;;;;;;;21.05;9.85;;;;;;;;;;5019029;28;20061;-81
2022/12/17 16:33:49;;;;;;;25.50;11.27;;;;;;;;;;5006405;28;20022;-81
2022/12/17 16:36:17;;;;;;;24.40;10.20;;;;;;;;;;5023707;28;20074;-82
2022/12/17 16:38:51;;;;;;;23.88;11.38;;;;;;;;;;5019680;28;20518;-82
2022/12/17 16:41:18;;;;;;;37.15;13.85;;;;;;;;;;5018677;28;20480;-82
2022/12/17 16:43:43;;;;;;;35.72;14.20;;;;;;;;;;5006837;28;20041;-81
2022/12/17 16:46:29;;;;;;;27.23;11.00;;;;;;;;;;4998533;28;20041;-80
2022/12/17 16:48:57;;;;;;;22.15;11.07;;;;;;;;;;5023566;28;20029;-82
2022/12/17 16:51:24;;;;;;;31.52;13.15;;;;;;;;;;5019619;28;20025;-82
2022/12/17 16:53:49;;;;;;;26.83;12.40;;;;;;;;;;5026606;28;20764;-82
2022/12/17 16:56:17;;;;;;;35.40;13.52;;;;;;;;;;5021650;28;20038;-83
2022/12/17 16:58:43;;;;;;;32.55;14.27;;;;;;;;;;5014109;28;20119;-81
2022/12/17 17:01:09;;;;;;;23.75;11.52;;;;;;;;;;4990894;28;20604;-82
2022/12/17 17:03:38;;;;;;;25.63;11.82;;;;;;;;;;5006741;28;20052;-83
2022/12/17 17:06:03;;;;;;;30.08;12.55;;;;;;;;;;5004943;28;20041;-82
2022/12/17 17:08:29;;;;;;;42.13;13.70;;;;;;;;;;5006695;28;20551;-80
2022/12/17 17:10:54;;;;;;;29.70;13.48;;;;;;;;;;5014626;28;20527;-82
2022/12/17 17:13:19;;;;;;;25.38;12.70;;;;;;;;;;5005060;28;20048;-82
2022/12/17 17:15:44;;;;;;;32.50;13.27;;;;;;;;;;5003667;28;20672;-85
2022/12/17 17:18:10;;;;;;;36.72;12.80;;;;;;;;;;5006849;28;20032;-82
2022/12/17 17:20:35;;;;;;;27.48;12.00;;;;;;;;;;5023294;28;20038;-82
2022/12/17 17:23:01;;;;;;;25.63;12.20;;;;;;;;;;5024125;28;20053;-82
2022/12/17 17:25:27;;;;;;;35.75;14.20;;;;;;;;;;5018050;28;20710;-82
2022/12/17 17:27:52;;;;;;;36.92;14.43;;;;;;;;;;5018017;28;20507;-82
2022/12/17 17:30:18;;;;;;;40.50;14.25;;;;;;;;;;5017862;28;20975;-82
2022/12/17 17:32:43;;;;;;;26.90;11.30;;;;;;;;;;5016200;28;20034;-82
2022/12/17 17:35:08;;;;;;;37.47;14.95;;;;;;;;;;5016966;28;20055;-82
2022/12/17 17:37:34;;;;;;;36.85;14.35;;;;;;;;;;5006394;28;20046;-82
2022/12/17 17:39:59;;;;;;;31.67;14.07;;;;;;;;;;5005288;28;20033;-82
2022/12/17 17:42:24;;;;;;;28.67;14.00;;;;;;;;;;5014281;28;20021;-82
2022/12/17 17:44:50;;;;;;;34.72;16.73;;;;;;;;;;5017246;28;20083;-82
2022/12/17 17:47:15;;;;;;;40.67;15.20;;;;;;;;;;5012340;28;20030;-81
2022/12/17 17:49:41;;;;;;;41.50;15.35;;;;;;;;;;5013538;28;20160;-81
2022/12/17 17:52:06;;;;;;;33.33;12.77;;;;;;;;;;5038010;28;20068;-82
2022/12/17 17:54:32;;;;;;;28.00;12.73;;;;;;;;;;5022401;28;20033;-82
2022/12/17 17:56:57;;;;;;;54.28;20.17;;;;;;;;;;5007208;28;20557;-82
2022/12/17 17:59:22;;;;;;;40.83;18.35;;;;;;;;;;5027270;28;20045;-80
2022/12/17 18:01:49;;;;;;;36.60;14.00;;;;;;;;;;5019837;28;20096;-81
2022/12/17 18:04:18;;;;;;;26.90;13.15;;;;;;;;;;5026173;28;20064;-82
2022/12/17 18:06:45;;;;;;;31.65;13.77;;;;;;;;;;5025595;28;20572;-81
2022/12/17 18:09:11;;;;;;;30.65;13.80;;;;;;;;;;5026510;28;20093;-82
2022/12/17 18:11:38;;;;;;;39.67;15.60;;;;;;;;;;5016151;28;20072;-81
2022/12/17 18:14:05;;;;;;;33.10;15.40;;;;;;;;;;5026527;28;20060;-82
2022/12/17 18:16:39;;;;;;;37.55;13.93;;;;;;;;;;5009651;28;20030;-82
2022/12/17 18:19:17;;;;;;;30.75;12.25;;;;;;;;;;5003962;28;20065;-82
2022/12/17 18:21:42;;;;;;;45.10;13.90;;;;;;;;;;5002808;28;20565;-77
2022/12/17 18:24:17;;;;;;;116.80;15.05;;;;;;;;;;5005119;28;20022;-82
2022/12/17 18:26:45;;;;;;;35.78;13.27;;;;;;;;;;5006841;28;20069;-82
2022/12/17 18:29:13;;;;;;;95.55;16.63;;;;;;;;;;4999426;28;20049;-80
2022/12/17 18:31:39;;;;;;;86.43;13.82;;;;;;;;;;5005825;28;20110;-83
2022/12/17 18:34:06;;;;;;;134.50;16.52;;;;;;;;;;5023584;28;20059;-82
2022/12/17 18:36:37;;;;;;;68.05;16.60;;;;;;;;;;5023499;28;20026;-82
2022/12/17 18:39:22;;;;;;;71.43;17.15;;;;;;;;;;5019607;28;20038;-82
2022/12/17 18:44:37;;;;;;;61.08;13.38;;;;;;;;;;5001942;28;20056;-83
2022/12/17 18:47:02;;;;;;;41.00;14.18;;;;;;;;;;5015147;28;20061;-82
2022/12/17 18:49:27;;;;;;;56.95;16.73;;;;;;;;;;5023828;28;20064;-82
2022/12/17 18:51:53;;;;;;;56.45;15.45;;;;;;;;;;5023034;28;20088;-82
2022/12/17 18:54:27;;;;;;;51.47;15.10;;;;;;;;;;5023224;28;20022;-82
2022/12/17 18:56:54;;;;;;;76.10;18.65;;;;;;;;;;5019465;28;20137;-82
2022/12/17 18:59:21;;;;;;;52.03;16.52;;;;;;;;;;5018298;28;20045;-82
2022/12/17 19:01:47;;;;;;;49.65;16.48;;;;;;;;;;5013536;28;20084;-82
2022/12/17 19:04:16;;;;;;;33.92;14.38;;;;;;;;;;5034694;28;20060;-80
2022/12/17 19:06:42;;;;;;;45.22;17.95;;;;;;;;;;5008639;28;20030;-80
2022/12/17 19:09:16;;;;;;;43.38;18.15;;;;;;;;;;5006459;28;20061;-81
2022/12/17 19:11:42;;;;;;;39.80;15.50;;;;;;;;;;5037807;28;20071;-81
2022/12/17 19:14:07;;;;;;;50.72;16.20;;;;;;;;;;5006574;28;20148;-82
2022/12/17 19:16:33;;;;;;;53.92;15.50;;;;;;;;;;5011539;28;20040;-82
2022/12/17 19:19:01;;;;;;;47.85;18.02;;;;;;;;;;5027006;28;20031;-82
2022/12/17 19:21:27;;;;;;;34.65;14.75;;;;;;;;;;5023149;28;20049;-83
2022/12/17 19:23:58;;;;;;;27.05;12.85;;;;;;;;;;5016088;28;20041;-83
2022/12/17 19:26:24;;;;;;;38.97;16.15;;;;;;;;;;5016854;28;20037;-81
2022/12/17 19:28:52;;;;;;;35.13;15.27;;;;;;;;;;5013835;28;20041;-82
2022/12/17 19:31:20;;;;;;;34.33;14.52;;;;;;;;;;5017690;28;20041;-82
2022/12/17 19:33:45;;;;;;;34.83;14.82;;;;;;;;;;5009382;28;20569;-82
2022/12/17 19:36:13;;;;;;;33.63;14.85;;;;;;;;;;5010849;28;20021;-82
2022/12/17 19:38:39;;;;;;;54.75;14.90;;;;;;;;;;5014824;28;20048;-82
2022/12/17 19:41:07;;;;;;;39.88;14.32;;;;;;;;;;5013269;28;20041;-81
2022/12/17 19:43:33;;;;;;;33.58;13.73;;;;;;;;;;5011751;28;20049;-82
2022/12/17 19:46:03;;;;;;;29.13;13.88;;;;;;;;;;5000504;28;20048;-81
2022/12/17 19:48:30;;;;;;;32.05;13.05;;;;;;;;;;5012363;28;20108;-82
2022/12/17 19:50:56;;;;;;;27.48;13.65;;;;;;;;;;5006487;28;20030;-82
2022/12/17 19:53:22;;;;;;;37.95;13.18;;;;;;;;;;5012161;28;20034;-82
2022/12/17 19:55:47;;;;;;;31.30;13.63;;;;;;;;;;5008739;28;20038;-82
2022/12/17 19:58:13;;;;;;;27.85;12.15;;;;;;;;;;5004960;28;20552;-82
2022/12/17 20:00:38;;;;;;;27.92;12.20;;;;;;;;;;5005876;28;20037;-81
2022/12/17 20:03:04;;;;;;;31.58;14.57;;;;;;;;;;5011248;28;20041;-81
2022/12/17 20:05:29;;;;;;;28.52;12.05;;;;;;;;;;5008819;28;20614;-82
2022/12/17 20:07:55;;;;;;;29.90;12.02;;;;;;;;;;5002594;28;20042;-79
2022/12/17 20:10:20;;;;;;;34.15;15.10;;;;;;;;;;5018242;28;20033;-81
2022/12/17 20:12:46;;;;;;;31.38;15.05;;;;;;;;;;5013049;28;20030;-81
2022/12/17 20:15:11;;;;;;;32.15;12.93;;;;;;;;;;5012769;28;20450;-79
2022/12/17 20:17:36;;;;;;;32.55;14.23;;;;;;;;;;5016787;28;20482;-81
2022/12/17 20:20:01;;;;;;;34.78;14.98;;;;;;;;;;5008601;28;20091;-81
2022/12/17 20:22:27;;;;;;;30.17;13.90;;;;;;;;;;5026624;28;20049;-80
2022/12/17 20:24:52;;;;;;;33.22;12.73;;;;;;;;;;5011398;28;20029;-77
2022/12/17 20:27:18;;;;;;;32.05;15.55;;;;;;;;;;5015292;28;20044;-81
2022/12/17 20:29:43;;;;;;;34.00;13.93;;;;;;;;;;5010060;28;20447;-81
2022/12/17 20:32:09;;;;;;;35.70;15.55;;;;;;;;;;5008943;28;20088;-82
2022/12/17 20:34:34;;;;;;;29.73;12.30;;;;;;;;;;5007574;28;20038;-81
2022/12/17 20:36:59;;;;;;;31.55;13.20;;;;;;;;;;5013726;28;20033;-81
2022/12/17 20:39:25;;;;;;;32.45;13.85;;;;;;;;;;5006664;28;20029;-82
2022/12/17 20:41:50;;;;;;;38.83;12.10;;;;;;;;;;5004715;28;20033;-80
2022/12/17 20:44:16;;;;;;;32.92;13.35;;;;;;;;;;5012683;28;20053;-82
2022/12/17 20:46:42;;;;;;;19.88;10.10;;;;;;;;;;5006175;28;20136;-79
2022/12/17 20:49:10;;;;;;;22.65;11.77;;;;;;;;;;5013849;28;20030;-82
2022/12/17 20:51:35;;;;;;;25.23;12.15;;;;;;;;;;5014324;28;20027;-81
2022/12/17 20:54:02;;;;;;;32.13;13.10;;;;;;;;;;5007697;28;20042;-82
2022/12/17 20:56:30;;;;;;;23.60;11.65;;;;;;;;;;5014133;28;20040;-82
2022/12/17 20:59:01;;;;;;;25.17;12.23;;;;;;;;;;5010492;28;20037;-82
2022/12/17 21:01:28;;;;;;;31.52;11.07;;;;;;;;;;5014023;28;20042;-82
2022/12/17 21:03:56;;;;;;;25.05;13.43;;;;;;;;;;5009362;28;20033;-80
2022/12/17 21:06:24;;;;;;;25.33;12.20;;;;;;;;;;5012100;28;20447;-82
2022/12/17 21:08:51;;;;;;;36.78;13.48;;;;;;;;;;5007039;28;20037;-81
2022/12/17 21:11:19;;;;;;;31.55;14.35;;;;;;;;;;5016450;28;20029;-82
2022/12/17 21:13:45;;;;;;;19.30;10.95;;;;;;;;;;5003924;28;20613;-82
2022/12/17 21:16:23;;;;;;;31.88;13.32;;;;;;;;;;5011263;28;20041;-82
2022/12/17 21:18:48;;;;;;;34.88;12.23;;;;;;;;;;5011476;28;20025;-82
2022/12/17 21:21:17;;;;;;;29.35;11.10;;;;;;;;;;5009293;28;20028;-80
2022/12/17 21:23:44;;;;;;;31.83;11.63;;;;;;;;;;5008190;28;20129;-81
2022/12/17 21:26:36;;;;;;;24.17;11.68;;;;;;;;;;5010516;28;20060;-82
2022/12/17 21:29:03;;;;;;;27.17;12.02;;;;;;;;;;5013936;28;20121;-81
2022/12/17 21:31:37;;;;;;;29.23;10.90;;;;;;;;;;5007706;28;20439;-82
2022/12/17 21:34:05;;;;;;;27.75;11.98;;;;;;;;;;5006823;28;20094;-82
2022/12/17 21:36:32;;;;;;;28.92;12.52;;;;;;;;;;5024964;28;20042;-81
2022/12/17 21:38:58;;;;;;;35.10;12.38;;;;;;;;;;5033697;28;20041;-81
2022/12/17 21:41:30;;;;;;;31.92;12.40;;;;;;;;;;5006672;28;20534;-78
2022/12/17 21:43:59;;;;;;;33.53;15.43;;;;;;;;;;5016630;28;21158;-81
2022/12/17 21:46:26;;;;;;;24.10;11.43;;;;;;;;;;5010310;28;20168;-82
2022/12/17 21:48:52;;;;;;;21.80;11.57;;;;;;;;;;5010855;28;20586;-81
2022/12/17 21:51:19;;;;;;;30.33;12.57;;;;;;;;;;5009540;28;20031;-81
2022/12/17 21:53:45;;;;;;;28.50;12.68;;;;;;;;;;5011374;28;20100;-82
2022/12/17 21:56:13;;;;;;;36.13;12.15;;;;;;;;;;5012500;28;20041;-81
2022/12/17 21:58:38;;;;;;;29.30;14.82;;;;;;;;;;5015569;28;20037;-82
2022/12/17 22:01:25;;;;;;;33.40;12.95;;;;;;;;;;5011338;28;20037;-81
2022/12/17 22:03:52;;;;;;;26.10;13.45;;;;;;;;;;5007471;28;20036;-81
2022/12/17 22:06:19;;;;;;;24.75;12.93;;;;;;;;;;5005464;28;20026;-81
2022/12/17 22:08:45;;;;;;;26.52;13.02;;;;;;;;;;5007045;28;20061;-81
2022/12/17 22:11:13;;;;;;;32.67;15.75;;;;;;;;;;5009177;28;20501;-82
2022/12/17 22:16:25;;;;;;;32.95;13.93;;;;;;;;;;5007658;28;20077;-82
2022/12/17 22:18:51;;;;;;;21.10;10.95;;;;;;;;;;5011259;28;20033;-82
2022/12/17 22:21:17;;;;;;;29.73;11.32;;;;;;;;;;5005806;28;20487;-80
2022/12/17 22:23:46;;;;;;;29.92;13.60;;;;;;;;;;5015958;28;20099;-82
2022/12/17 22:26:11;;;;;;;41.65;15.15;;;;;;;;;;5005600;28;20095;-82
2022/12/17 22:28:37;;;;;;;30.48;14.90;;;;;;;;;;5003139;28;20038;-82
2022/12/17 22:33:50;;;;;;;25.17;14.73;;;;;;;;;;5007921;28;20045;-81
2022/12/17 22:36:16;;;;;;;36.05;12.50;;;;;;;;;;5001097;28;20033;-81
2022/12/17 22:38:41;;;;;;;33.22;13.93;;;;;;;;;;5037352;28;20061;-80
2022/12/17 22:41:07;;;;;;;37.97;16.17;;;;;;;;;;5033274;28;20068;-80
2022/12/17 22:43:33;;;;;;;21.40;11.50;;;;;;;;;;5015446;28;20064;-79
2022/12/17 22:46:00;;;;;;;21.45;10.77;;;;;;;;;;5013830;28;20448;-82
2022/12/17 22:48:26;;;;;;;27.90;11.30;;;;;;;;;;5012871;28;20031;-81
2022/12/17 22:50:52;;;;;;;18.35;10.23;;;;;;;;;;5019156;28;20092;-79
2022/12/17 22:53:18;;;;;;;11.95;6.88;;;;;;;;;;5009474;28;20046;-81
2022/12/17 22:55:43;;;;;;;26.38;10.68;;;;;;;;;;5002564;28;20119;-80
2022/12/17 22:58:08;;;;;;;21.25;8.45;;;;;;;;;;5026173;28;20053;-80
2022/12/17 23:00:35;;;;;;;27.38;11.20;;;;;;;;;;5025913;28;20028;-80
2022/12/17 23:03:01;;;;;;;27.55;10.75;;;;;;;;;;5011064;28;20060;-80
2022/12/17 23:05:27;;;;;;;18.88;9.70;;;;;;;;;;5018181;28;20065;-80
2022/12/17 23:07:53;;;;;;;21.02;10.48;;;;;;;;;;5016655;28;20068;-80
2022/12/17 23:10:20;;;;;;;18.15;9.70;;;;;;;;;;5021525;28;20030;-80
2022/12/17 23:12:55;;;;;;;16.40;8.45;;;;;;;;;;4993547;28;20519;-80
2022/12/17 23:15:33;;;;;;;14.85;8.65;;;;;;;;;;5015546;28;20045;-80
2022/12/17 23:18:01;;;;;;;15.55;8.50;;;;;;;;;;5020854;28;20095;-80
2022/12/17 23:20:29;;;;;;;21.05;8.07;;;;;;;;;;5025886;28;20124;-82
2022/12/17 23:22:55;;;;;;;18.38;9.10;;;;;;;;;;5014720;28;20080;-80
2022/12/17 23:25:21;;;;;;;18.08;7.95;;;;;;;;;;5013810;28;20049;-81
2022/12/17 23:27:47;;;;;;;18.23;7.30;;;;;;;;;;5006469;28;20030;-81
2022/12/17 23:30:14;;;;;;;12.98;8.23;;;;;;;;;;5009924;28;20037;-80
2022/12/17 23:32:40;;;;;;;17.23;8.48;;;;;;;;;;5013094;28;20124;-80
2022/12/17 23:35:06;;;;;;;16.73;7.55;;;;;;;;;;5011603;28;20116;-81
2022/12/17 23:37:31;;;;;;;16.52;8.48;;;;;;;;;;5022006;28;20048;-80
2022/12/17 23:39:57;;;;;;;20.48;6.80;;;;;;;;;;5021309;28;20028;-81
2022/12/17 23:42:22;;;;;;;15.80;7.80;;;;;;;;;;5010177;28;20125;-80
2022/12/17 23:44:47;;;;;;;16.52;9.32;;;;;;;;;;5013591;28;20664;-80
2022/12/17 23:47:13;;;;;;;21.80;9.77;;;;;;;;;;5006198;28;20040;-83
2022/12/17 23:49:38;;;;;;;22.30;7.93;;;;;;;;;;5022862;28;20033;-81
2022/12/17 23:52:04;;;;;;;28.05;11.65;;;;;;;;;;5017623;28;20037;-80
2022/12/17 23:54:29;;;;;;;26.17;8.77;;;;;;;;;;5026768;28;20077;-81
2022/12/17 23:56:54;;;;;;;20.17;8.57;;;;;;;;;;5026297;28;20617;-81
2022/12/17 23:59:20;;;;;;;12.93;7.38;;;;;;;;;;5041923;28;20060;-81
